sensor_id;sensor_type;location;lat;lon;timestamp;pressure;altitude;pressure_sealevel;temperature;humidity
19783;BME280;10051;40.294;-3.754;2022-12-18T00:00:28;94817.44;;;8.83;100.00
19783;BME280;10051;40.294;-3.754;2022-12-18T00:02:55;94703.38;;;8.15;100.00
19783;BME280;10051;40.294;-3.754;2022-12-18T00:05:21;94784.81;;;8.69;100.00
19783;BME280;10051;40.294;-3.754;2022-12-18T00:07:46;94732.84;;;8.28;100.00
19783;BME280;10051;40.294;-3.754;2022-12-18T00:10:12;94823.69;;;8.77;100.00
19783;BME280;10051;40.294;-3.754;2022-12-18T00:12:38;94781.00;;;8.49;100.00
19783;BME280;10051;40.294;-3.754;2022-12-18T00:15:04;94801.97;;;8.49;100.00
19783;BME280;10051;40.294;-3.754;2022-12-18T00:17:29;94819.50;;;8.48;100.00
19783;BME280;10051;40.294;-3.754;2022-12-18T00:19:58;94678.31;;;7.65;100.00
19783;BME280;10051;40.294;-3.754;2022-12-18T00:22:25;94701.38;;;7.68;100.00
19783;BME280;10051;40.294;-3.754;2022-12-18T00:24:51;94749.59;;;7.99;100.00
19783;BME280;10051;40.294;-3.754;2022-12-18T00:27:16;94747.13;;;8.15;100.00
19783;BME280;10051;40.294;-3.754;2022-12-18T00:29:42;94680.75;;;7.77;100.00
19783;BME280;10051;40.294;-3.754;2022-12-18T00:32:08;94705.03;;;7.94;100.00
19783;BME280;10051;40.294;-3.754;2022-12-18T00:34:36;94692.09;;;7.82;100.00
19783;BME280;10051;40.294;-3.754;2022-12-18T00:37:02;94813.69;;;8.74;100.00
19783;BME280;10051;40.294;-3.754;2022-12-18T00:39:27;94670.94;;;7.89;100.00
19783;BME280;10051;40.294;-3.754;2022-12-18T00:41:53;94629.50;;;7.53;100.00
19783;BME280;10051;40.294;-3.754;2022-12-18T00:44:37;94818.53;;;8.87;100.00
19783;BME280;10051;40.294;-3.754;2022-12-18T00:47:11;94574.31;;;7.27;100.00
19783;BME280;10051;40.294;-3.754;2022-12-18T00:49:37;94697.56;;;8.08;100.00
19783;BME280;10051;40.294;-3.754;2022-12-18T00:52:03;94742.78;;;8.26;100.00
19783;BME280;10051;40.294;-3.754;2022-12-18T00:54:28;94724.06;;;8.12;100.00
19783;BME280;10051;40.294;-3.754;2022-12-18T00:56:54;94660.28;;;7.68;100.00
19783;BME280;10051;40.294;-3.754;2022-12-18T00:59:22;94772.72;;;8.35;100.00
19783;BME280;10051;40.294;-3.754;2022-12-18T01:01:47;94816.19;;;8.58;100.00
19783;BME280;10051;40.294;-3.754;2022-12-18T01:04:13;94741.03;;;8.09;100.00
19783;BME280;10051;40.294;-3.754;2022-12-18T01:06:39;94667.09;;;7.69;100.00
19783;BME280;10051;40.294;-3.754;2022-12-18T01:09:05;94669.53;;;7.76;100.00
19783;BME280;10051;40.294;-3.754;2022-12-18T01:11:31;94798.88;;;8.57;100.00
19783;BME280;10051;40.294;-3.754;2022-12-18T01:14:00;94714.97;;;7.92;100.00
19783;BME280;10051;40.294;-3.754;2022-12-18T01:16:25;94714.38;;;7.85;100.00
19783;BME280;10051;40.294;-3.754;2022-12-18T01:18:52;94825.09;;;8.57;100.00
19783;BME280;10051;40.294;-3.754;2022-12-18T01:21:19;94792.13;;;8.39;100.00
19783;BME280;10051;40.294;-3.754;2022-12-18T01:23:46;94829.03;;;8.60;100.00
19783;BME280;10051;40.294;-3.754;2022-12-18T01:26:14;94761.28;;;8.19;100.00
19783;BME280;10051;40.294;-3.754;2022-12-18T01:28:40;94597.78;;;6.95;100.00
19783;BME280;10051;40.294;-3.754;2022-12-18T01:31:11;94759.91;;;7.84;100.00
19783;BME280;10051;40.294;-3.754;2022-12-18T01:33:40;94824.16;;;8.19;100.00
19783;BME280;10051;40.294;-3.754;2022-12-18T01:36:05;94732.56;;;7.69;100.00
19783;BME280;10051;40.294;-3.754;2022-12-18T01:38:31;94691.97;;;7.44;100.00
19783;BME280;10051;40.294;-3.754;2022-12-18T01:40:58;94686.13;;;7.15;100.00
19783;BME280;10051;40.294;-3.754;2022-12-18T01:46:10;94753.97;;;7.66;100.00
19783;BME280;10051;40.294;-3.754;2022-12-18T01:48:37;94860.25;;;8.39;100.00
19783;BME280;10051;40.294;-3.754;2022-12-18T01:51:04;94796.31;;;8.08;100.00
19783;BME280;10051;40.294;-3.754;2022-12-18T01:53:31;94860.22;;;8.56;100.00
19783;BME280;10051;40.294;-3.754;2022-12-18T01:55:58;94871.59;;;8.67;100.00
19783;BME280;10051;40.294;-3.754;2022-12-18T01:58:39;94796.91;;;8.15;100.00
19783;BME280;10051;40.294;-3.754;2022-12-18T02:01:12;94883.34;;;8.65;100.00
19783;BME280;10051;40.294;-3.754;2022-12-18T02:03:41;94616.56;;;7.14;100.00
19783;BME280;10051;40.294;-3.754;2022-12-18T02:06:22;94603.63;;;7.02;100.00
19783;BME280;10051;40.294;-3.754;2022-12-18T02:09:11;94864.53;;;8.73;100.00
19783;BME280;10051;40.294;-3.754;2022-12-18T02:11:52;94869.28;;;8.76;100.00
19783;BME280;10051;40.294;-3.754;2022-12-18T02:14:38;94844.22;;;8.58;100.00
19783;BME280;10051;40.294;-3.754;2022-12-18T02:17:20;94763.53;;;8.05;100.00
19783;BME280;10051;40.294;-3.754;2022-12-18T02:28:35;94891.94;;;8.87;100.00
19783;BME280;10051;40.294;-3.754;2022-12-18T02:31:07;94886.00;;;8.97;100.00
19783;BME280;10051;40.294;-3.754;2022-12-18T02:33:36;94860.38;;;8.77;100.00
19783;BME280;10051;40.294;-3.754;2022-12-18T02:36:03;94854.00;;;8.68;100.00
19783;BME280;10051;40.294;-3.754;2022-12-18T02:38:31;94882.25;;;8.88;100.00
19783;BME280;10051;40.294;-3.754;2022-12-18T02:40:59;94790.16;;;8.24;100.00
19783;BME280;10051;40.294;-3.754;2022-12-18T02:43:31;94795.16;;;8.26;100.00
19783;BME280;10051;40.294;-3.754;2022-12-18T02:45:59;94825.69;;;8.37;100.00
19783;BME280;10051;40.294;-3.754;2022-12-18T02:48:32;94704.69;;;7.58;100.00
19783;BME280;10051;40.294;-3.754;2022-12-18T02:51:10;94900.38;;;8.89;100.00
19783;BME280;10051;40.294;-3.754;2022-12-18T02:54:22;94902.94;;;8.84;100.00
19783;BME280;10051;40.294;-3.754;2022-12-18T02:56:54;94864.66;;;8.56;100.00
19783;BME280;10051;40.294;-3.754;2022-12-18T02:59:30;94906.56;;;8.78;100.00
19783;BME280;10051;40.294;-3.754;2022-12-18T03:02:04;94788.06;;;7.99;100.00
19783;BME280;10051;40.294;-3.754;2022-12-18T03:04:36;94905.81;;;8.83;100.00
19783;BME280;10051;40.294;-3.754;2022-12-18T03:07:26;94855.84;;;8.40;100.00
19783;BME280;10051;40.294;-3.754;2022-12-18T03:09:54;94837.88;;;8.26;100.00
19783;BME280;10051;40.294;-3.754;2022-12-18T03:12:44;94911.63;;;8.62;100.00
19783;BME280;10051;40.294;-3.754;2022-12-18T03:15:17;94861.78;;;8.30;100.00
19783;BME280;10051;40.294;-3.754;2022-12-18T03:17:56;94862.50;;;8.25;100.00
19783;BME280;10051;40.294;-3.754;2022-12-18T03:20:25;94864.44;;;8.35;100.00
19783;BME280;10051;40.294;-3.754;2022-12-18T03:22:59;94902.09;;;8.51;100.00
19783;BME280;10051;40.294;-3.754;2022-12-18T03:25:27;94840.50;;;8.26;100.00
19783;BME280;10051;40.294;-3.754;2022-12-18T03:27:56;94865.81;;;8.43;100.00
19783;BME280;10051;40.294;-3.754;2022-12-18T03:30:26;94918.78;;;8.67;100.00
19783;BME280;10051;40.294;-3.754;2022-12-18T03:33:00;94926.31;;;8.58;100.00
19783;BME280;10051;40.294;-3.754;2022-12-18T03:35:35;94818.44;;;7.95;100.00
19783;BME280;10051;40.294;-3.754;2022-12-18T03:38:03;94792.06;;;7.79;100.00
19783;BME280;10051;40.294;-3.754;2022-12-18T03:43:14;94792.91;;;7.85;100.00
19783;BME280;10051;40.294;-3.754;2022-12-18T03:45:53;94832.13;;;8.29;100.00
19783;BME280;10051;40.294;-3.754;2022-12-18T03:48:42;94869.69;;;8.62;100.00
19783;BME280;10051;40.294;-3.754;2022-12-18T03:51:49;94900.22;;;8.74;100.00
19783;BME280;10051;40.294;-3.754;2022-12-18T03:54:18;94925.56;;;8.90;100.00
19783;BME280;10051;40.294;-3.754;2022-12-18T03:56:51;94885.09;;;8.54;100.00
19783;BME280;10051;40.294;-3.754;2022-12-18T03:59:19;94878.38;;;8.41;100.00
19783;BME280;10051;40.294;-3.754;2022-12-18T04:01:47;94838.72;;;8.04;100.00
19783;BME280;10051;40.294;-3.754;2022-12-18T04:04:16;94923.13;;;8.56;100.00
19783;BME280;10051;40.294;-3.754;2022-12-18T04:06:45;94936.25;;;8.56;100.00
19783;BME280;10051;40.294;-3.754;2022-12-18T04:09:13;94925.78;;;8.61;100.00
19783;BME280;10051;40.294;-3.754;2022-12-18T04:11:40;94861.66;;;8.19;100.00
19783;BME280;10051;40.294;-3.754;2022-12-18T04:14:07;94836.16;;;8.10;100.00
19783;BME280;10051;40.294;-3.754;2022-12-18T04:16:33;94785.50;;;7.77;100.00
19783;BME280;10051;40.294;-3.754;2022-12-18T04:19:02;94897.28;;;8.43;100.00
19783;BME280;10051;40.294;-3.754;2022-12-18T04:21:28;94916.88;;;8.62;100.00
19783;BME280;10051;40.294;-3.754;2022-12-18T04:23:53;94872.25;;;8.30;100.00
19783;BME280;10051;40.294;-3.754;2022-12-18T04:26:19;94806.56;;;7.87;100.00
19783;BME280;10051;40.294;-3.754;2022-12-18T04:28:44;94771.69;;;7.59;100.00
19783;BME280;10051;40.294;-3.754;2022-12-18T04:31:10;94823.25;;;7.81;100.00
19783;BME280;10051;40.294;-3.754;2022-12-18T04:33:36;94785.97;;;7.51;100.00
19783;BME280;10051;40.294;-3.754;2022-12-18T04:36:02;94832.94;;;7.80;100.00
19783;BME280;10051;40.294;-3.754;2022-12-18T04:38:28;94938.16;;;8.44;100.00
19783;BME280;10051;40.294;-3.754;2022-12-18T04:40:53;94854.25;;;7.89;100.00
19783;BME280;10051;40.294;-3.754;2022-12-18T04:43:19;94950.78;;;8.47;100.00
19783;BME280;10051;40.294;-3.754;2022-12-18T04:45:45;94919.22;;;8.37;100.00
19783;BME280;10051;40.294;-3.754;2022-12-18T04:48:10;94874.09;;;8.07;100.00
19783;BME280;10051;40.294;-3.754;2022-12-18T04:50:39;94918.72;;;8.40;100.00
19783;BME280;10051;40.294;-3.754;2022-12-18T04:53:05;94938.72;;;8.46;100.00
19783;BME280;10051;40.294;-3.754;2022-12-18T04:55:33;94945.44;;;8.59;100.00
19783;BME280;10051;40.294;-3.754;2022-12-18T04:57:58;94839.00;;;8.08;100.00
19783;BME280;10051;40.294;-3.754;2022-12-18T05:00:24;94858.75;;;8.16;100.00
19783;BME280;10051;40.294;-3.754;2022-12-18T05:02:49;94942.38;;;8.67;100.00
19783;BME280;10051;40.294;-3.754;2022-12-18T05:05:15;94933.00;;;8.49;100.00
19783;BME280;10051;40.294;-3.754;2022-12-18T05:07:41;94840.31;;;7.83;100.00
19783;BME280;10051;40.294;-3.754;2022-12-18T05:10:07;94943.50;;;8.49;100.00
19783;BME280;10051;40.294;-3.754;2022-12-18T05:12:33;94904.97;;;8.27;100.00
19783;BME280;10051;40.294;-3.754;2022-12-18T05:14:59;94851.94;;;7.93;100.00
19783;BME280;10051;40.294;-3.754;2022-12-18T05:17:27;94948.88;;;8.59;100.00
19783;BME280;10051;40.294;-3.754;2022-12-18T05:19:53;94914.19;;;8.30;100.00
19783;BME280;10051;40.294;-3.754;2022-12-18T05:22:18;94921.78;;;8.31;100.00
19783;BME280;10051;40.294;-3.754;2022-12-18T05:24:44;94869.72;;;7.68;100.00
19783;BME280;10051;40.294;-3.754;2022-12-18T05:27:09;94928.88;;;8.09;100.00
19783;BME280;10051;40.294;-3.754;2022-12-18T05:29:37;94841.00;;;7.56;100.00
19783;BME280;10051;40.294;-3.754;2022-12-18T05:32:03;94920.88;;;7.98;100.00
19783;BME280;10051;40.294;-3.754;2022-12-18T05:34:29;94866.63;;;7.71;100.00
19783;BME280;10051;40.294;-3.754;2022-12-18T05:36:55;94870.44;;;7.86;100.00
19783;BME280;10051;40.294;-3.754;2022-12-18T05:39:20;94869.66;;;7.85;100.00
19783;BME280;10051;40.294;-3.754;2022-12-18T05:41:46;94845.13;;;7.69;100.00
19783;BME280;10051;40.294;-3.754;2022-12-18T05:44:11;94961.28;;;8.47;100.00
19783;BME280;10051;40.294;-3.754;2022-12-18T05:46:37;94818.47;;;7.55;100.00
19783;BME280;10051;40.294;-3.754;2022-12-18T05:49:03;94859.91;;;7.81;100.00
19783;BME280;10051;40.294;-3.754;2022-12-18T05:51:28;94806.88;;;7.46;100.00
19783;BME280;10051;40.294;-3.754;2022-12-18T05:53:54;94933.72;;;8.22;100.00
19783;BME280;10051;40.294;-3.754;2022-12-18T05:56:21;94897.78;;;7.95;100.00
19783;BME280;10051;40.294;-3.754;2022-12-18T05:58:51;94871.66;;;7.78;100.00
19783;BME280;10051;40.294;-3.754;2022-12-18T06:01:26;94953.97;;;8.27;100.00
19783;BME280;10051;40.294;-3.754;2022-12-18T06:03:52;94896.19;;;7.94;100.00
19783;BME280;10051;40.294;-3.754;2022-12-18T06:06:21;94993.00;;;8.28;100.00
19783;BME280;10051;40.294;-3.754;2022-12-18T06:08:48;94965.84;;;8.12;100.00
19783;BME280;10051;40.294;-3.754;2022-12-18T06:11:17;94955.69;;;8.16;100.00
19783;BME280;10051;40.294;-3.754;2022-12-18T06:13:43;94863.63;;;7.46;100.00
19783;BME280;10051;40.294;-3.754;2022-12-18T06:16:09;94938.09;;;7.94;100.00
19783;BME280;10051;40.294;-3.754;2022-12-18T06:18:34;94989.00;;;8.43;100.00
19783;BME280;10051;40.294;-3.754;2022-12-18T06:21:00;94893.28;;;7.68;100.00
19783;BME280;10051;40.294;-3.754;2022-12-18T06:23:27;94977.56;;;8.27;100.00
19783;BME280;10051;40.294;-3.754;2022-12-18T06:25:52;94974.31;;;8.19;100.00
19783;BME280;10051;40.294;-3.754;2022-12-18T06:28:18;95018.03;;;8.36;100.00
19783;BME280;10051;40.294;-3.754;2022-12-18T06:30:47;94929.47;;;7.77;100.00
19783;BME280;10051;40.294;-3.754;2022-12-18T06:33:14;94986.97;;;8.06;100.00
19783;BME280;10051;40.294;-3.754;2022-12-18T06:35:40;94944.50;;;7.81;100.00
19783;BME280;10051;40.294;-3.754;2022-12-18T06:38:06;94968.09;;;8.03;100.00
19783;BME280;10051;40.294;-3.754;2022-12-18T06:40:32;94947.88;;;7.82;100.00
19783;BME280;10051;40.294;-3.754;2022-12-18T06:42:57;94928.41;;;7.72;100.00
19783;BME280;10051;40.294;-3.754;2022-12-18T06:45:23;95026.75;;;8.42;100.00
19783;BME280;10051;40.294;-3.754;2022-12-18T06:47:49;94932.09;;;7.77;100.00
19783;BME280;10051;40.294;-3.754;2022-12-18T06:50:15;95026.91;;;8.35;100.00
19783;BME280;10051;40.294;-3.754;2022-12-18T06:52:41;94981.75;;;8.06;100.00
19783;BME280;10051;40.294;-3.754;2022-12-18T06:55:09;94992.88;;;8.18;100.00
19783;BME280;10051;40.294;-3.754;2022-12-18T06:57:36;95000.59;;;8.25;100.00
19783;BME280;10051;40.294;-3.754;2022-12-18T07:00:04;94975.50;;;7.89;100.00
19783;BME280;10051;40.294;-3.754;2022-12-18T07:02:31;95036.53;;;8.29;100.00
19783;BME280;10051;40.294;-3.754;2022-12-18T07:04:57;94959.28;;;7.70;100.00
19783;BME280;10051;40.294;-3.754;2022-12-18T07:07:23;95044.88;;;8.26;100.00
19783;BME280;10051;40.294;-3.754;2022-12-18T07:09:52;95005.16;;;7.95;100.00
19783;BME280;10051;40.294;-3.754;2022-12-18T07:12:18;95028.16;;;8.10;100.00
19783;BME280;10051;40.294;-3.754;2022-12-18T07:14:43;94981.94;;;7.82;100.00
19783;BME280;10051;40.294;-3.754;2022-12-18T07:17:09;94983.69;;;7.76;100.00
19783;BME280;10051;40.294;-3.754;2022-12-18T07:19:35;94894.34;;;7.50;100.00
19783;BME280;10051;40.294;-3.754;2022-12-18T07:22:00;94904.63;;;7.57;100.00
19783;BME280;10051;40.294;-3.754;2022-12-18T07:24:26;94896.88;;;7.45;100.00
19783;BME280;10051;40.294;-3.754;2022-12-18T07:26:52;94942.03;;;7.74;100.00
19783;BME280;10051;40.294;-3.754;2022-12-18T07:29:18;94919.22;;;7.53;100.00
19783;BME280;10051;40.294;-3.754;2022-12-18T07:31:44;95004.22;;;8.01;100.00
19783;BME280;10051;40.294;-3.754;2022-12-18T07:34:11;94983.25;;;8.01;100.00
19783;BME280;10051;40.294;-3.754;2022-12-18T07:36:37;94861.28;;;7.10;100.00
19783;BME280;10051;40.294;-3.754;2022-12-18T07:39:03;95033.72;;;8.14;100.00
19783;BME280;10051;40.294;-3.754;2022-12-18T07:41:28;94909.56;;;7.36;100.00
19783;BME280;10051;40.294;-3.754;2022-12-18T07:43:54;95014.88;;;8.17;100.00
19783;BME280;10051;40.294;-3.754;2022-12-18T07:46:20;94861.78;;;7.24;100.00
19783;BME280;10051;40.294;-3.754;2022-12-18T07:48:45;95040.56;;;8.37;100.00
19783;BME280;10051;40.294;-3.754;2022-12-18T07:51:11;95024.69;;;8.04;100.00
19783;BME280;10051;40.294;-3.754;2022-12-18T07:53:37;94930.25;;;7.38;100.00
19783;BME280;10051;40.294;-3.754;2022-12-18T07:56:09;95007.72;;;7.90;100.00
19783;BME280;10051;40.294;-3.754;2022-12-18T07:58:35;95001.91;;;7.88;100.00
19783;BME280;10051;40.294;-3.754;2022-12-18T08:01:14;95050.75;;;8.33;100.00
19783;BME280;10051;40.294;-3.754;2022-12-18T08:03:40;94954.16;;;7.81;100.00
19783;BME280;10051;40.294;-3.754;2022-12-18T08:06:07;95012.66;;;8.26;100.00
19783;BME280;10051;40.294;-3.754;2022-12-18T08:08:34;95006.91;;;8.07;100.00
19783;BME280;10051;40.294;-3.754;2022-12-18T08:11:00;94997.13;;;8.02;100.00
19783;BME280;10051;40.294;-3.754;2022-12-18T08:13:27;95048.59;;;8.30;100.00
19783;BME280;10051;40.294;-3.754;2022-12-18T08:16:03;95011.88;;;8.08;100.00
19783;BME280;10051;40.294;-3.754;2022-12-18T08:18:29;95022.13;;;8.10;100.00
19783;BME280;10051;40.294;-3.754;2022-12-18T08:20:55;95005.16;;;7.95;100.00
19783;BME280;10051;40.294;-3.754;2022-12-18T08:23:21;95062.03;;;8.34;100.00
19783;BME280;10051;40.294;-3.754;2022-12-18T08:25:47;95039.63;;;8.26;100.00
19783;BME280;10051;40.294;-3.754;2022-12-18T08:28:12;94964.00;;;7.73;100.00
19783;BME280;10051;40.294;-3.754;2022-12-18T08:30:43;95061.22;;;8.33;100.00
19783;BME280;10051;40.294;-3.754;2022-12-18T08:33:08;95042.25;;;8.26;100.00
19783;BME280;10051;40.294;-3.754;2022-12-18T08:35:35;95105.78;;;8.73;100.00
19783;BME280;10051;40.294;-3.754;2022-12-18T08:38:02;94916.94;;;7.39;100.00
19783;BME280;10051;40.294;-3.754;2022-12-18T08:40:28;94993.03;;;7.89;100.00
19783;BME280;10051;40.294;-3.754;2022-12-18T08:42:53;95108.72;;;8.54;100.00
19783;BME280;10051;40.294;-3.754;2022-12-18T08:45:38;95001.72;;;8.12;100.00
19783;BME280;10051;40.294;-3.754;2022-12-18T08:48:03;95116.00;;;8.91;100.00
19783;BME280;10051;40.294;-3.754;2022-12-18T08:50:29;95113.91;;;8.93;100.00
19783;BME280;10051;40.294;-3.754;2022-12-18T08:52:54;95005.47;;;8.16;100.00
19783;BME280;10051;40.294;-3.754;2022-12-18T08:55:20;95009.63;;;8.17;100.00
19783;BME280;10051;40.294;-3.754;2022-12-18T08:57:48;95001.69;;;8.29;100.00
19783;BME280;10051;40.294;-3.754;2022-12-18T09:00:15;95014.38;;;8.20;100.00
19783;BME280;10051;40.294;-3.754;2022-12-18T09:02:40;94924.06;;;7.61;100.00
19783;BME280;10051;40.294;-3.754;2022-12-18T09:05:06;95017.38;;;8.07;100.00
19783;BME280;10051;40.294;-3.754;2022-12-18T09:07:38;95148.03;;;8.93;100.00
19783;BME280;10051;40.294;-3.754;2022-12-18T09:10:04;95145.88;;;8.90;100.00
19783;BME280;10051;40.294;-3.754;2022-12-18T09:12:30;95142.94;;;8.87;100.00
19783;BME280;10051;40.294;-3.754;2022-12-18T09:14:55;95135.19;;;8.75;100.00
19783;BME280;10051;40.294;-3.754;2022-12-18T09:17:22;95002.25;;;7.74;100.00
19783;BME280;10051;40.294;-3.754;2022-12-18T09:19:47;95047.22;;;8.06;100.00
19783;BME280;10051;40.294;-3.754;2022-12-18T09:22:15;95091.41;;;8.36;100.00
19783;BME280;10051;40.294;-3.754;2022-12-18T09:24:41;95076.53;;;8.42;100.00
19783;BME280;10051;40.294;-3.754;2022-12-18T09:27:06;95082.81;;;8.41;100.00
19783;BME280;10051;40.294;-3.754;2022-12-18T09:29:32;95188.00;;;9.01;100.00
19783;BME280;10051;40.294;-3.754;2022-12-18T09:31:58;95158.84;;;8.80;100.00
19783;BME280;10051;40.294;-3.754;2022-12-18T09:34:23;95192.22;;;9.02;100.00
19783;BME280;10051;40.294;-3.754;2022-12-18T09:36:49;95084.66;;;8.23;100.00
19783;BME280;10051;40.294;-3.754;2022-12-18T09:39:15;95132.78;;;8.51;100.00
19783;BME280;10051;40.294;-3.754;2022-12-18T09:41:44;95063.50;;;8.08;100.00
19783;BME280;10051;40.294;-3.754;2022-12-18T09:44:24;95198.72;;;8.99;100.00
19783;BME280;10051;40.294;-3.754;2022-12-18T09:47:12;95197.88;;;8.93;100.00
19783;BME280;10051;40.294;-3.754;2022-12-18T09:49:43;95187.78;;;8.85;100.00
19783;BME280;10051;40.294;-3.754;2022-12-18T09:52:26;95158.16;;;8.68;100.00
19783;BME280;10051;40.294;-3.754;2022-12-18T09:55:21;95162.63;;;8.67;100.00
19783;BME280;10051;40.294;-3.754;2022-12-18T09:57:52;95214.72;;;8.98;100.00
19783;BME280;10051;40.294;-3.754;2022-12-18T10:00:23;95194.53;;;8.81;100.00
19783;BME280;10051;40.294;-3.754;2022-12-18T10:02:50;95221.91;;;9.07;100.00
19783;BME280;10051;40.294;-3.754;2022-12-18T10:08:58;95229.59;;;9.14;100.00
19783;BME280;10051;40.294;-3.754;2022-12-18T10:11:21;95118.69;;;8.40;100.00
19783;BME280;10051;40.294;-3.754;2022-12-18T10:13:52;95229.59;;;9.14;100.00
19783;BME280;10051;40.294;-3.754;2022-12-18T10:24:48;95076.75;;;8.01;100.00
19783;BME280;10051;40.294;-3.754;2022-12-18T10:27:22;95119.44;;;8.36;100.00
19783;BME280;10051;40.294;-3.754;2022-12-18T10:29:48;95079.19;;;8.25;100.00
19783;BME280;10051;40.294;-3.754;2022-12-18T10:32:17;95164.59;;;8.77;100.00
19783;BME280;10051;40.294;-3.754;2022-12-18T10:34:55;95147.94;;;8.66;100.00
19783;BME280;10051;40.294;-3.754;2022-12-18T10:37:26;95185.22;;;8.90;100.00
19783;BME280;10051;40.294;-3.754;2022-12-18T10:40:14;95081.09;;;8.12;100.00
19783;BME280;10051;40.294;-3.754;2022-12-18T10:42:41;95213.31;;;9.12;100.00
19783;BME280;10051;40.294;-3.754;2022-12-18T10:45:16;95204.78;;;9.00;100.00
19783;BME280;10051;40.294;-3.754;2022-12-18T10:47:47;95016.53;;;7.84;100.00
19783;BME280;10051;40.294;-3.754;2022-12-18T10:52:59;95239.75;;;9.50;100.00
19783;BME280;10051;40.294;-3.754;2022-12-18T10:55:37;95180.28;;;9.16;100.00
19783;BME280;10051;40.294;-3.754;2022-12-18T10:58:18;95162.59;;;9.06;100.00
19783;BME280;10051;40.294;-3.754;2022-12-18T11:01:08;95228.97;;;9.46;100.00
19783;BME280;10051;40.294;-3.754;2022-12-18T11:03:40;95094.59;;;8.38;100.00
19783;BME280;10051;40.294;-3.754;2022-12-18T11:06:08;95234.09;;;9.36;100.00
19783;BME280;10051;40.294;-3.754;2022-12-18T11:08:34;95193.06;;;9.07;100.00
19783;BME280;10051;40.294;-3.754;2022-12-18T11:10:59;95075.72;;;8.41;100.00
19783;BME280;10051;40.294;-3.754;2022-12-18T11:13:30;95080.19;;;8.41;100.00
19783;BME280;10051;40.294;-3.754;2022-12-18T11:15:57;95047.00;;;8.29;100.00
19783;BME280;10051;40.294;-3.754;2022-12-18T11:18:32;95233.03;;;9.59;100.00
19783;BME280;10051;40.294;-3.754;2022-12-18T11:21:09;95246.88;;;9.55;100.00
19783;BME280;10051;40.294;-3.754;2022-12-18T11:23:49;95198.91;;;9.37;100.00
19783;BME280;10051;40.294;-3.754;2022-12-18T11:26:15;95130.31;;;9.06;100.00
19783;BME280;10051;40.294;-3.754;2022-12-18T11:28:48;95236.53;;;9.92;100.00
19783;BME280;10051;40.294;-3.754;2022-12-18T11:31:28;95113.72;;;9.22;100.00
19783;BME280;10051;40.294;-3.754;2022-12-18T11:34:16;95190.22;;;9.59;100.00
19783;BME280;10051;40.294;-3.754;2022-12-18T11:36:48;95124.75;;;9.25;100.00
19783;BME280;10051;40.294;-3.754;2022-12-18T11:39:20;95134.34;;;9.36;100.00
19783;BME280;10051;40.294;-3.754;2022-12-18T11:41:56;95190.56;;;9.90;100.00
19783;BME280;10051;40.294;-3.754;2022-12-18T11:44:47;95168.34;;;9.75;100.00
19783;BME280;10051;40.294;-3.754;2022-12-18T11:47:35;95220.63;;;10.04;100.00
19783;BME280;10051;40.294;-3.754;2022-12-18T11:50:12;95215.00;;;10.23;100.00
19783;BME280;10051;40.294;-3.754;2022-12-18T11:52:45;95212.50;;;10.38;100.00
19783;BME280;10051;40.294;-3.754;2022-12-18T11:55:14;95005.13;;;9.01;100.00
19783;BME280;10051;40.294;-3.754;2022-12-18T12:00:22;95208.81;;;10.34;100.00
19783;BME280;10051;40.294;-3.754;2022-12-18T12:06:07;95194.16;;;10.44;100.00
19783;BME280;10051;40.294;-3.754;2022-12-18T12:09:18;95201.59;;;10.52;100.00
19783;BME280;10051;40.294;-3.754;2022-12-18T12:11:54;95191.41;;;10.66;100.00
19783;BME280;10051;40.294;-3.754;2022-12-18T12:17:41;95181.31;;;10.90;100.00
19783;BME280;10051;40.294;-3.754;2022-12-18T12:23:12;95135.81;;;10.47;100.00
19783;BME280;10051;40.294;-3.754;2022-12-18T12:34:04;95167.34;;;10.47;100.00
19783;BME280;10051;40.294;-3.754;2022-12-18T12:39:31;95137.56;;;10.03;100.00
19783;BME280;10051;40.294;-3.754;2022-12-18T12:41:59;95075.00;;;9.62;100.00
19783;BME280;10051;40.294;-3.754;2022-12-18T12:44:47;95157.13;;;10.18;100.00
19783;BME280;10051;40.294;-3.754;2022-12-18T12:47:17;95116.09;;;10.11;100.00
19783;BME280;10051;40.294;-3.754;2022-12-18T12:49:45;95122.78;;;10.30;100.00
19783;BME280;10051;40.294;-3.754;2022-12-18T12:52:35;95121.50;;;10.32;100.00
19783;BME280;10051;40.294;-3.754;2022-12-18T12:55:04;95146.66;;;10.55;100.00
19783;BME280;10051;40.294;-3.754;2022-12-18T12:57:34;95116.72;;;10.24;100.00
19783;BME280;10051;40.294;-3.754;2022-12-18T13:00:12;95145.72;;;10.34;100.00
19783;BME280;10051;40.294;-3.754;2022-12-18T13:06:07;95121.09;;;10.51;100.00
19783;BME280;10051;40.294;-3.754;2022-12-18T13:08:31;95019.28;;;9.98;100.00
19783;BME280;10051;40.294;-3.754;2022-12-18T13:10:58;95048.63;;;10.27;100.00
19783;BME280;10051;40.294;-3.754;2022-12-18T13:13:50;95132.44;;;11.10;100.00
19783;BME280;10051;40.294;-3.754;2022-12-18T13:16:25;95118.72;;;11.03;100.00
19783;BME280;10051;40.294;-3.754;2022-12-18T13:18:57;95086.63;;;11.06;100.00
19783;BME280;10051;40.294;-3.754;2022-12-18T13:21:34;95018.19;;;11.00;100.00
19783;BME280;10051;40.294;-3.754;2022-12-18T13:26:53;95118.94;;;12.42;98.90
19783;BME280;10051;40.294;-3.754;2022-12-18T13:29:45;95131.53;;;12.71;92.60
19783;BME280;10051;40.294;-3.754;2022-12-18T13:32:37;95124.66;;;12.70;89.63
19783;BME280;10051;40.294;-3.754;2022-12-18T13:37:53;95079.38;;;12.37;90.49
19783;BME280;10051;40.294;-3.754;2022-12-18T13:40:55;95100.69;;;12.56;91.75
19783;BME280;10051;40.294;-3.754;2022-12-18T13:46:00;95111.03;;;12.47;90.33
19783;BME280;10051;40.294;-3.754;2022-12-18T13:48:29;95021.41;;;11.90;90.63
19783;BME280;10051;40.294;-3.754;2022-12-18T13:51:01;95040.91;;;11.89;89.58
19783;BME280;10051;40.294;-3.754;2022-12-18T13:53:35;95078.34;;;11.97;90.63
19783;BME280;10051;40.294;-3.754;2022-12-18T13:56:04;95028.78;;;11.42;90.70
19783;BME280;10051;40.294;-3.754;2022-12-18T13:58:32;95023.78;;;11.25;91.60
19783;BME280;10051;40.294;-3.754;2022-12-18T14:00:58;94962.34;;;10.73;90.41
19783;BME280;10051;40.294;-3.754;2022-12-18T14:03:27;95102.56;;;11.63;90.62
19783;BME280;10051;40.294;-3.754;2022-12-18T14:05:56;95040.88;;;11.33;90.35
19783;BME280;10051;40.294;-3.754;2022-12-18T14:08:29;95095.72;;;11.82;90.12